sensor_id;sensor_type;location;lat;lon;timestamp;temperature;humidity
15156;DHT22;7678;50.058;8.306;2022-11-18T00:01:15;7.50;99.90
15156;DHT22;7678;50.058;8.306;2022-11-18T00:03:45;7.50;99.90
15156;DHT22;7678;50.058;8.306;2022-11-18T00:06:16;7.50;99.90
15156;DHT22;7678;50.058;8.306;2022-11-18T00:08:45;7.50;99.90
15156;DHT22;7678;50.058;8.306;2022-11-18T00:11:14;7.50;99.90
15156;DHT22;7678;50.058;8.306;2022-11-18T00:14:03;7.50;99.90
15156;DHT22;7678;50.058;8.306;2022-11-18T00:16:45;7.60;99.90
15156;DHT22;7678;50.058;8.306;2022-11-18T00:19:17;7.60;99.90
15156;DHT22;7678;50.058;8.306;2022-11-18T00:21:45;7.60;99.90
15156;DHT22;7678;50.058;8.306;2022-11-18T00:24:13;7.60;99.90
15156;DHT22;7678;50.058;8.306;2022-11-18T00:26:41;7.70;99.90
15156;DHT22;7678;50.058;8.306;2022-11-18T00:29:10;7.70;99.90
15156;DHT22;7678;50.058;8.306;2022-11-18T00:31:38;7.70;99.90
15156;DHT22;7678;50.058;8.306;2022-11-18T00:34:09;7.80;99.90
15156;DHT22;7678;50.058;8.306;2022-11-18T00:36:40;7.70;99.90
15156;DHT22;7678;50.058;8.306;2022-11-18T00:39:10;7.80;99.90
15156;DHT22;7678;50.058;8.306;2022-11-18T00:41:38;7.80;99.90
15156;DHT22;7678;50.058;8.306;2022-11-18T00:44:23;7.80;99.90
15156;DHT22;7678;50.058;8.306;2022-11-18T00:46:51;7.80;99.90
15156;DHT22;7678;50.058;8.306;2022-11-18T00:49:19;7.80;99.90
15156;DHT22;7678;50.058;8.306;2022-11-18T00:51:49;7.80;99.90
15156;DHT22;7678;50.058;8.306;2022-11-18T00:54:17;7.80;99.90
15156;DHT22;7678;50.058;8.306;2022-11-18T00:56:45;7.80;99.90
15156;DHT22;7678;50.058;8.306;2022-11-18T00:59:13;7.90;99.90
15156;DHT22;7678;50.058;8.306;2022-11-18T01:01:41;7.90;99.90
15156;DHT22;7678;50.058;8.306;2022-11-18T01:04:10;7.90;99.90
15156;DHT22;7678;50.058;8.306;2022-11-18T01:06:38;7.90;99.90
15156;DHT22;7678;50.058;8.306;2022-11-18T01:09:08;7.90;99.90
15156;DHT22;7678;50.058;8.306;2022-11-18T01:11:36;7.90;99.90
15156;DHT22;7678;50.058;8.306;2022-11-18T01:14:23;7.90;99.90
15156;DHT22;7678;50.058;8.306;2022-11-18T01:16:53;8.00;99.90
15156;DHT22;7678;50.058;8.306;2022-11-18T01:19:22;7.90;99.90
15156;DHT22;7678;50.058;8.306;2022-11-18T01:21:50;7.90;99.90
15156;DHT22;7678;50.058;8.306;2022-11-18T01:24:20;7.90;99.90
15156;DHT22;7678;50.058;8.306;2022-11-18T01:26:48;7.90;99.90
15156;DHT22;7678;50.058;8.306;2022-11-18T01:29:16;7.90;99.90
15156;DHT22;7678;50.058;8.306;2022-11-18T01:31:45;8.00;99.90
15156;DHT22;7678;50.058;8.306;2022-11-18T01:34:33;8.00;99.90
15156;DHT22;7678;50.058;8.306;2022-11-18T01:37:03;8.00;99.90
15156;DHT22;7678;50.058;8.306;2022-11-18T01:39:33;8.00;99.90
15156;DHT22;7678;50.058;8.306;2022-11-18T01:42:01;8.10;99.90
15156;DHT22;7678;50.058;8.306;2022-11-18T01:44:52;8.10;99.90
15156;DHT22;7678;50.058;8.306;2022-11-18T01:47:23;8.10;99.90
15156;DHT22;7678;50.058;8.306;2022-11-18T01:49:52;8.10;99.90
15156;DHT22;7678;50.058;8.306;2022-11-18T01:52:21;8.10;99.90
15156;DHT22;7678;50.058;8.306;2022-11-18T01:54:56;8.10;99.90
15156;DHT22;7678;50.058;8.306;2022-11-18T01:57:26;8.10;99.90
15156;DHT22;7678;50.058;8.306;2022-11-18T01:59:58;8.10;99.90
15156;DHT22;7678;50.058;8.306;2022-11-18T02:02:30;8.10;99.90
15156;DHT22;7678;50.058;8.306;2022-11-18T02:05:00;8.10;99.90
15156;DHT22;7678;50.058;8.306;2022-11-18T02:07:30;8.10;99.90
15156;DHT22;7678;50.058;8.306;2022-11-18T02:10:02;8.10;99.90
15156;DHT22;7678;50.058;8.306;2022-11-18T02:12:31;8.10;99.90
15156;DHT22;7678;50.058;8.306;2022-11-18T02:14:59;8.20;99.90
15156;DHT22;7678;50.058;8.306;2022-11-18T02:17:37;8.20;99.90
15156;DHT22;7678;50.058;8.306;2022-11-18T02:20:28;8.20;99.90
15156;DHT22;7678;50.058;8.306;2022-11-18T02:23:30;8.30;99.90
15156;DHT22;7678;50.058;8.306;2022-11-18T02:26:37;8.30;99.90
15156;DHT22;7678;50.058;8.306;2022-11-18T02:29:13;8.30;99.90
15156;DHT22;7678;50.058;8.306;2022-11-18T02:31:47;8.30;99.90
15156;DHT22;7678;50.058;8.306;2022-11-18T02:34:24;8.30;99.90
15156;DHT22;7678;50.058;8.306;2022-11-18T02:36:58;8.30;99.90
15156;DHT22;7678;50.058;8.306;2022-11-18T02:39:30;8.30;99.90
15156;DHT22;7678;50.058;8.306;2022-11-18T02:42:01;8.30;99.90
15156;DHT22;7678;50.058;8.306;2022-11-18T02:44:35;8.30;99.90
15156;DHT22;7678;50.058;8.306;2022-11-18T02:47:06;8.30;99.90
15156;DHT22;7678;50.058;8.306;2022-11-18T02:49:38;8.30;99.90
15156;DHT22;7678;50.058;8.306;2022-11-18T02:52:09;8.30;99.90
15156;DHT22;7678;50.058;8.306;2022-11-18T02:54:40;8.30;99.90
15156;DHT22;7678;50.058;8.306;2022-11-18T02:57:11;8.30;99.90
15156;DHT22;7678;50.058;8.306;2022-11-18T02:59:41;8.30;99.90
15156;DHT22;7678;50.058;8.306;2022-11-18T03:02:13;8.20;99.90
15156;DHT22;7678;50.058;8.306;2022-11-18T03:04:43;8.20;99.90
15156;DHT22;7678;50.058;8.306;2022-11-18T03:07:15;8.10;99.90
15156;DHT22;7678;50.058;8.306;2022-11-18T03:09:46;8.10;99.90
15156;DHT22;7678;50.058;8.306;2022-11-18T03:12:23;8.10;99.90
15156;DHT22;7678;50.058;8.306;2022-11-18T03:15:01;8.10;99.90
15156;DHT22;7678;50.058;8.306;2022-11-18T03:17:37;8.10;99.90
15156;DHT22;7678;50.058;8.306;2022-11-18T03:20:17;8.10;99.90
15156;DHT22;7678;50.058;8.306;2022-11-18T03:22:51;8.00;99.90
15156;DHT22;7678;50.058;8.306;2022-11-18T03:25:28;8.00;99.90
15156;DHT22;7678;50.058;8.306;2022-11-18T03:28:04;8.00;99.90
15156;DHT22;7678;50.058;8.306;2022-11-18T03:30:39;7.90;99.90
15156;DHT22;7678;50.058;8.306;2022-11-18T03:33:10;7.90;99.90
15156;DHT22;7678;50.058;8.306;2022-11-18T03:35:43;7.90;99.90
15156;DHT22;7678;50.058;8.306;2022-11-18T03:38:19;7.90;99.90
15156;DHT22;7678;50.058;8.306;2022-11-18T03:41:00;7.90;99.90
15156;DHT22;7678;50.058;8.306;2022-11-18T03:43:35;7.90;99.90
15156;DHT22;7678;50.058;8.306;2022-11-18T03:46:07;7.90;99.90
15156;DHT22;7678;50.058;8.306;2022-11-18T03:48:42;7.80;99.90
15156;DHT22;7678;50.058;8.306;2022-11-18T03:51:15;7.80;99.90
15156;DHT22;7678;50.058;8.306;2022-11-18T03:53:49;7.80;99.90
15156;DHT22;7678;50.058;8.306;2022-11-18T03:56:21;7.80;99.90
15156;DHT22;7678;50.058;8.306;2022-11-18T03:58:59;7.80;99.90
15156;DHT22;7678;50.058;8.306;2022-11-18T04:01:37;7.70;99.90
15156;DHT22;7678;50.058;8.306;2022-11-18T04:04:08;7.70;99.90
15156;DHT22;7678;50.058;8.306;2022-11-18T04:06:40;7.80;99.90
15156;DHT22;7678;50.058;8.306;2022-11-18T04:09:14;7.80;99.90
15156;DHT22;7678;50.058;8.306;2022-11-18T04:11:48;7.80;99.90
15156;DHT22;7678;50.058;8.306;2022-11-18T04:14:30;7.80;99.90
15156;DHT22;7678;50.058;8.306;2022-11-18T04:17:05;7.80;99.90
15156;DHT22;7678;50.058;8.306;2022-11-18T04:19:34;7.80;99.90
15156;DHT22;7678;50.058;8.306;2022-11-18T04:22:03;7.70;99.90
15156;DHT22;7678;50.058;8.306;2022-11-18T04:24:31;7.70;99.90
15156;DHT22;7678;50.058;8.306;2022-11-18T04:26:59;7.70;99.90
15156;DHT22;7678;50.058;8.306;2022-11-18T04:29:28;7.70;99.90
15156;DHT22;7678;50.058;8.306;2022-11-18T04:31:57;7.70;99.90
15156;DHT22;7678;50.058;8.306;2022-11-18T04:34:26;7.70;99.90
15156;DHT22;7678;50.058;8.306;2022-11-18T04:36:55;7.70;99.90
15156;DHT22;7678;50.058;8.306;2022-11-18T04:39:23;7.80;99.90
15156;DHT22;7678;50.058;8.306;2022-11-18T04:41:51;7.80;99.90
15156;DHT22;7678;50.058;8.306;2022-11-18T04:44:26;7.80;99.90
15156;DHT22;7678;50.058;8.306;2022-11-18T04:46:55;7.80;99.90
15156;DHT22;7678;50.058;8.306;2022-11-18T04:51:56;7.80;99.90
15156;DHT22;7678;50.058;8.306;2022-11-18T04:54:24;7.70;99.90
15156;DHT22;7678;50.058;8.306;2022-11-18T04:56:53;7.70;99.90
15156;DHT22;7678;50.058;8.306;2022-11-18T04:59:25;7.70;99.90
15156;DHT22;7678;50.058;8.306;2022-11-18T05:01:54;7.70;99.90
15156;DHT22;7678;50.058;8.306;2022-11-18T05:04:26;7.80;99.90
15156;DHT22;7678;50.058;8.306;2022-11-18T05:06:58;7.80;99.90
15156;DHT22;7678;50.058;8.306;2022-11-18T05:09:26;7.80;99.90
15156;DHT22;7678;50.058;8.306;2022-11-18T05:11:58;7.80;99.90
15156;DHT22;7678;50.058;8.306;2022-11-18T05:14:43;7.80;99.90
15156;DHT22;7678;50.058;8.306;2022-11-18T05:17:16;7.90;99.90
15156;DHT22;7678;50.058;8.306;2022-11-18T05:19:47;8.00;99.90
15156;DHT22;7678;50.058;8.306;2022-11-18T05:22:17;8.00;99.90
15156;DHT22;7678;50.058;8.306;2022-11-18T05:24:48;8.00;99.90
15156;DHT22;7678;50.058;8.306;2022-11-18T05:27:19;8.00;99.90
15156;DHT22;7678;50.058;8.306;2022-11-18T05:29:47;8.00;99.90
15156;DHT22;7678;50.058;8.306;2022-11-18T05:32:19;8.10;99.90
15156;DHT22;7678;50.058;8.306;2022-11-18T05:34:47;8.10;99.90
15156;DHT22;7678;50.058;8.306;2022-11-18T05:37:19;8.10;99.90
15156;DHT22;7678;50.058;8.306;2022-11-18T05:39:50;8.10;99.90
15156;DHT22;7678;50.058;8.306;2022-11-18T05:42:20;8.10;99.90
15156;DHT22;7678;50.058;8.306;2022-11-18T05:45:06;8.10;99.90
15156;DHT22;7678;50.058;8.306;2022-11-18T05:47:34;8.10;99.90
15156;DHT22;7678;50.058;8.306;2022-11-18T05:50:22;8.10;99.90
15156;DHT22;7678;50.058;8.306;2022-11-18T05:52:52;8.20;99.90
15156;DHT22;7678;50.058;8.306;2022-11-18T05:55:22;8.10;99.90
15156;DHT22;7678;50.058;8.306;2022-11-18T05:57:52;8.20;99.90
15156;DHT22;7678;50.058;8.306;2022-11-18T06:00:23;8.20;99.90
15156;DHT22;7678;50.058;8.306;2022-11-18T06:02:53;8.20;99.90
15156;DHT22;7678;50.058;8.306;2022-11-18T06:05:23;8.20;99.90
15156;DHT22;7678;50.058;8.306;2022-11-18T06:07:55;8.10;99.90
15156;DHT22;7678;50.058;8.306;2022-11-18T06:10:27;8.10;99.90
15156;DHT22;7678;50.058;8.306;2022-11-18T06:13:00;8.10;99.90
15156;DHT22;7678;50.058;8.306;2022-11-18T06:15:32;8.10;99.90
15156;DHT22;7678;50.058;8.306;2022-11-18T06:18:04;8.10;99.90
15156;DHT22;7678;50.058;8.306;2022-11-18T06:20:35;8.10;99.90
15156;DHT22;7678;50.058;8.306;2022-11-18T06:23:06;8.20;99.90
15156;DHT22;7678;50.058;8.306;2022-11-18T06:25:36;8.10;99.90
15156;DHT22;7678;50.058;8.306;2022-11-18T06:28:05;8.10;99.90
15156;DHT22;7678;50.058;8.306;2022-11-18T06:30:33;8.10;99.90
15156;DHT22;7678;50.058;8.306;2022-11-18T06:33:01;8.10;99.90
15156;DHT22;7678;50.058;8.306;2022-11-18T06:35:29;8.10;99.90
15156;DHT22;7678;50.058;8.306;2022-11-18T06:37:58;8.10;99.90
15156;DHT22;7678;50.058;8.306;2022-11-18T06:40:27;8.20;99.90
15156;DHT22;7678;50.058;8.306;2022-11-18T06:43:04;8.10;99.90
15156;DHT22;7678;50.058;8.306;2022-11-18T06:45:50;8.20;99.90
15156;DHT22;7678;50.058;8.306;2022-11-18T06:48:35;8.10;99.90
15156;DHT22;7678;50.058;8.306;2022-11-18T06:51:04;8.10;99.90
15156;DHT22;7678;50.058;8.306;2022-11-18T06:53:32;8.10;99.90
15156;DHT22;7678;50.058;8.306;2022-11-18T06:56:03;8.10;99.90
15156;DHT22;7678;50.058;8.306;2022-11-18T06:58:32;8.10;99.90
15156;DHT22;7678;50.058;8.306;2022-11-18T07:01:08;8.20;99.90
15156;DHT22;7678;50.058;8.306;2022-11-18T07:03:37;8.10;99.90
15156;DHT22;7678;50.058;8.306;2022-11-18T07:06:06;8.20;99.90
15156;DHT22;7678;50.058;8.306;2022-11-18T07:08:34;8.20;99.90
15156;DHT22;7678;50.058;8.306;2022-11-18T07:11:06;8.20;99.90
15156;DHT22;7678;50.058;8.306;2022-11-18T07:13:34;8.20;99.90
15156;DHT22;7678;50.058;8.306;2022-11-18T07:16:11;8.20;99.90
15156;DHT22;7678;50.058;8.306;2022-11-18T07:18:40;8.10;99.90
15156;DHT22;7678;50.058;8.306;2022-11-18T07:21:11;8.20;99.90
15156;DHT22;7678;50.058;8.306;2022-11-18T07:23:40;8.20;99.90
15156;DHT22;7678;50.058;8.306;2022-11-18T07:26:10;8.20;99.90
15156;DHT22;7678;50.058;8.306;2022-11-18T07:28:38;8.20;99.90
15156;DHT22;7678;50.058;8.306;2022-11-18T07:31:09;8.20;99.90
15156;DHT22;7678;50.058;8.306;2022-11-18T07:33:38;8.30;99.90
15156;DHT22;7678;50.058;8.306;2022-11-18T07:36:08;8.30;99.90
15156;DHT22;7678;50.058;8.306;2022-11-18T07:38:37;8.30;99.90
15156;DHT22;7678;50.058;8.306;2022-11-18T07:41:06;8.30;99.90
15156;DHT22;7678;50.058;8.306;2022-11-18T07:43:36;8.30;99.90
15156;DHT22;7678;50.058;8.306;2022-11-18T07:46:09;8.30;99.90
15156;DHT22;7678;50.058;8.306;2022-11-18T07:48:37;8.30;99.90
15156;DHT22;7678;50.058;8.306;2022-11-18T07:51:06;8.30;99.90
15156;DHT22;7678;50.058;8.306;2022-11-18T07:53:34;8.30;99.90
15156;DHT22;7678;50.058;8.306;2022-11-18T07:56:03;8.30;99.90
15156;DHT22;7678;50.058;8.306;2022-11-18T07:58:31;8.30;99.90
15156;DHT22;7678;50.058;8.306;2022-11-18T08:01:07;8.30;99.90
15156;DHT22;7678;50.058;8.306;2022-11-18T08:03:36;8.30;99.90
15156;DHT22;7678;50.058;8.306;2022-11-18T08:06:06;8.30;99.90
15156;DHT22;7678;50.058;8.306;2022-11-18T08:08:34;8.30;99.90
15156;DHT22;7678;50.058;8.306;2022-11-18T08:11:05;8.40;99.90
15156;DHT22;7678;50.058;8.306;2022-11-18T08:13:33;8.30;99.90
15156;DHT22;7678;50.058;8.306;2022-11-18T08:16:02;8.40;99.90
15156;DHT22;7678;50.058;8.306;2022-11-18T08:18:32;8.40;99.90
15156;DHT22;7678;50.058;8.306;2022-11-18T08:21:01;8.40;99.90
15156;DHT22;7678;50.058;8.306;2022-11-18T08:23:29;8.40;99.90
15156;DHT22;7678;50.058;8.306;2022-11-18T08:26:06;8.40;99.90
15156;DHT22;7678;50.058;8.306;2022-11-18T08:28:35;8.50;99.90
15156;DHT22;7678;50.058;8.306;2022-11-18T08:31:08;8.50;99.90
15156;DHT22;7678;50.058;8.306;2022-11-18T08:33:38;8.40;99.90
15156;DHT22;7678;50.058;8.306;2022-11-18T08:36:14;8.50;99.90
15156;DHT22;7678;50.058;8.306;2022-11-18T08:38:44;8.50;99.90
15156;DHT22;7678;50.058;8.306;2022-11-18T08:41:13;8.50;99.90
15156;DHT22;7678;50.058;8.306;2022-11-18T08:43:46;8.60;99.90
15156;DHT22;7678;50.058;8.306;2022-11-18T08:46:14;8.60;99.90
15156;DHT22;7678;50.058;8.306;2022-11-18T08:49:04;8.50;99.90
15156;DHT22;7678;50.058;8.306;2022-11-18T08:51:36;8.60;99.90
15156;DHT22;7678;50.058;8.306;2022-11-18T08:54:10;8.60;99.90
15156;DHT22;7678;50.058;8.306;2022-11-18T08:56:44;8.60;99.90
15156;DHT22;7678;50.058;8.306;2022-11-18T08:59:13;8.60;99.90
15156;DHT22;7678;50.058;8.306;2022-11-18T09:01:44;8.70;99.90
15156;DHT22;7678;50.058;8.306;2022-11-18T09:04:14;8.70;99.90
15156;DHT22;7678;50.058;8.306;2022-11-18T09:06:42;8.70;99.90
15156;DHT22;7678;50.058;8.306;2022-11-18T09:09:10;8.70;99.90
15156;DHT22;7678;50.058;8.306;2022-11-18T09:11:38;8.80;99.90
15156;DHT22;7678;50.058;8.306;2022-11-18T09:14:10;8.70;99.90
15156;DHT22;7678;50.058;8.306;2022-11-18T09:16:58;8.80;99.90
15156;DHT22;7678;50.058;8.306;2022-11-18T09:19:27;8.70;99.90
15156;DHT22;7678;50.058;8.306;2022-11-18T09:22:15;8.80;99.90
15156;DHT22;7678;50.058;8.306;2022-11-18T09:24:43;8.80;99.90
15156;DHT22;7678;50.058;8.306;2022-11-18T09:27:14;8.70;99.90
15156;DHT22;7678;50.058;8.306;2022-11-18T09:29:49;8.70;99.90
15156;DHT22;7678;50.058;8.306;2022-11-18T09:32:20;8.80;99.90
15156;DHT22;7678;50.058;8.306;2022-11-18T09:34:49;8.90;99.90
15156;DHT22;7678;50.058;8.306;2022-11-18T09:37:17;8.80;99.90
15156;DHT22;7678;50.058;8.306;2022-11-18T09:39:45;8.80;99.90
15156;DHT22;7678;50.058;8.306;2022-11-18T09:42:23;8.80;99.90
15156;DHT22;7678;50.058;8.306;2022-11-18T09:45:01;8.80;99.90
15156;DHT22;7678;50.058;8.306;2022-11-18T09:47:37;8.90;99.90
15156;DHT22;7678;50.058;8.306;2022-11-18T09:50:11;9.00;99.90
15156;DHT22;7678;50.058;8.306;2022-11-18T09:53:10;9.10;99.90
15156;DHT22;7678;50.058;8.306;2022-11-18T09:55:49;9.10;99.90
15156;DHT22;7678;50.058;8.306;2022-11-18T09:58:30;9.10;99.90
15156;DHT22;7678;50.058;8.306;2022-11-18T10:00:59;9.20;99.90
15156;DHT22;7678;50.058;8.306;2022-11-18T10:03:30;9.30;99.90
15156;DHT22;7678;50.058;8.306;2022-11-18T10:06:04;9.30;99.90
15156;DHT22;7678;50.058;8.306;2022-11-18T10:08:47;9.30;99.90
15156;DHT22;7678;50.058;8.306;2022-11-18T10:11:19;9.30;99.90
15156;DHT22;7678;50.058;8.306;2022-11-18T10:13:53;9.40;99.90
15156;DHT22;7678;50.058;8.306;2022-11-18T10:16:34;9.30;99.90
15156;DHT22;7678;50.058;8.306;2022-11-18T10:19:16;9.40;99.90
15156;DHT22;7678;50.058;8.306;2022-11-18T10:21:53;9.40;99.90
15156;DHT22;7678;50.058;8.306;2022-11-18T10:24:23;9.40;99.90
15156;DHT22;7678;50.058;8.306;2022-11-18T10:26:54;9.50;99.90
15156;DHT22;7678;50.058;8.306;2022-11-18T10:29:23;9.50;99.90
15156;DHT22;7678;50.058;8.306;2022-11-18T10:31:53;9.60;99.90
15156;DHT22;7678;50.058;8.306;2022-11-18T10:34:29;9.60;99.90
15156;DHT22;7678;50.058;8.306;2022-11-18T10:37:00;9.60;99.90
15156;DHT22;7678;50.058;8.306;2022-11-18T10:39:29;9.60;99.90
15156;DHT22;7678;50.058;8.306;2022-11-18T10:42:00;9.60;99.90
15156;DHT22;7678;50.058;8.306;2022-11-18T10:44:34;9.70;99.90
15156;DHT22;7678;50.058;8.306;2022-11-18T10:47:23;9.70;99.90
15156;DHT22;7678;50.058;8.306;2022-11-18T10:49:52;9.70;99.90
15156;DHT22;7678;50.058;8.306;2022-11-18T10:52:22;9.80;99.90
15156;DHT22;7678;50.058;8.306;2022-11-18T10:55:19;9.80;99.90
15156;DHT22;7678;50.058;8.306;2022-11-18T10:57:52;9.80;99.90
15156;DHT22;7678;50.058;8.306;2022-11-18T11:00:42;9.90;99.90
15156;DHT22;7678;50.058;8.306;2022-11-18T11:03:30;9.90;99.90
15156;DHT22;7678;50.058;8.306;2022-11-18T11:06:26;10.10;99.90
15156;DHT22;7678;50.058;8.306;2022-11-18T11:08:59;10.00;99.90
15156;DHT22;7678;50.058;8.306;2022-11-18T11:11:29;10.00;99.90
15156;DHT22;7678;50.058;8.306;2022-11-18T11:14:09;9.90;99.90
15156;DHT22;7678;50.058;8.306;2022-11-18T11:16:46;9.90;99.90
15156;DHT22;7678;50.058;8.306;2022-11-18T11:19:19;10.00;99.90
15156;DHT22;7678;50.058;8.306;2022-11-18T11:21:48;10.00;99.90
15156;DHT22;7678;50.058;8.306;2022-11-18T11:24:26;10.10;99.90
15156;DHT22;7678;50.058;8.306;2022-11-18T11:27:03;10.00;99.90
15156;DHT22;7678;50.058;8.306;2022-11-18T11:30:06;10.00;99.90
15156;DHT22;7678;50.058;8.306;2022-11-18T11:32:51;10.10;99.90
15156;DHT22;7678;50.058;8.306;2022-11-18T11:35:31;10.20;99.90
15156;DHT22;7678;50.058;8.306;2022-11-18T11:38:08;10.10;99.90
15156;DHT22;7678;50.058;8.306;2022-11-18T11:40:43;10.00;99.90
15156;DHT22;7678;50.058;8.306;2022-11-18T11:43:23;10.20;99.90
15156;DHT22;7678;50.058;8.306;2022-11-18T11:48:52;10.00;99.90
15156;DHT22;7678;50.058;8.306;2022-11-18T11:51:28;10.00;99.90
15156;DHT22;7678;50.058;8.306;2022-11-18T11:54:20;10.00;99.90
15156;DHT22;7678;50.058;8.306;2022-11-18T11:56:55;10.00;99.90
15156;DHT22;7678;50.058;8.306;2022-11-18T11:59:31;10.20;99.90
15156;DHT22;7678;50.058;8.306;2022-11-18T12:02:19;10.20;99.90
15156;DHT22;7678;50.058;8.306;2022-11-18T12:04:51;10.30;99.90
15156;DHT22;7678;50.058;8.306;2022-11-18T12:07:24;10.40;99.90
15156;DHT22;7678;50.058;8.306;2022-11-18T12:10:13;10.50;99.90
15156;DHT22;7678;50.058;8.306;2022-11-18T12:12:51;10.60;99.90
15156;DHT22;7678;50.058;8.306;2022-11-18T12:15:39;10.70;99.90
15156;DHT22;7678;50.058;8.306;2022-11-18T12:18:14;10.80;99.90
15156;DHT22;7678;50.058;8.306;2022-11-18T12:20:48;10.60;99.90
15156;DHT22;7678;50.058;8.306;2022-11-18T12:23:19;10.50;99.90
15156;DHT22;7678;50.058;8.306;2022-11-18T12:25:57;10.40;99.90
15156;DHT22;7678;50.058;8.306;2022-11-18T12:28:29;10.30;99.90
15156;DHT22;7678;50.058;8.306;2022-11-18T12:31:26;10.30;99.90
15156;DHT22;7678;50.058;8.306;2022-11-18T12:34:17;10.30;99.90
15156;DHT22;7678;50.058;8.306;2022-11-18T12:36:46;10.30;99.90
15156;DHT22;7678;50.058;8.306;2022-11-18T12:39:45;10.40;99.90
15156;DHT22;7678;50.058;8.306;2022-11-18T12:42:35;10.50;99.90
15156;DHT22;7678;50.058;8.306;2022-11-18T12:45:48;10.70;99.90
15156;DHT22;7678;50.058;8.306;2022-11-18T12:48:41;11.20;99.90
15156;DHT22;7678;50.058;8.306;2022-11-18T12:51:38;11.50;99.90
15156;DHT22;7678;50.058;8.306;2022-11-18T12:54:25;11.60;99.90
15156;DHT22;7678;50.058;8.306;2022-11-18T12:56:56;11.70;99.90
15156;DHT22;7678;50.058;8.306;2022-11-18T12:59:27;11.80;99.90
15156;DHT22;7678;50.058;8.306;2022-11-18T13:02:13;11.60;99.90
15156;DHT22;7678;50.058;8.306;2022-11-18T13:04:42;11.50;99.90
15156;DHT22;7678;50.058;8.306;2022-11-18T13:07:17;11.30;99.90
15156;DHT22;7678;50.058;8.306;2022-11-18T13:10:15;11.10;99.90
15156;DHT22;7678;50.058;8.306;2022-11-18T13:12:48;10.90;99.90
15156;DHT22;7678;50.058;8.306;2022-11-18T13:15:17;10.80;99.90
15156;DHT22;7678;50.058;8.306;2022-11-18T13:18:12;10.60;99.90
15156;DHT22;7678;50.058;8.306;2022-11-18T13:20:41;10.50;99.90
15156;DHT22;7678;50.058;8.306;2022-11-18T13:23:28;10.60;99.90
15156;DHT22;7678;50.058;8.306;2022-11-18T13:26:18;10.60;99.90
15156;DHT22;7678;50.058;8.306;2022-11-18T13:28:59;10.70;99.90
15156;DHT22;7678;50.058;8.306;2022-11-18T13:31:32;10.60;99.90
15156;DHT22;7678;50.058;8.306;2022-11-18T13:34:15;10.70;99.90
15156;DHT22;7678;50.058;8.306;2022-11-18T13:36:45;10.60;99.90
15156;DHT22;7678;50.058;8.306;2022-11-18T13:39:19;10.70;99.90
15156;DHT22;7678;50.058;8.306;2022-11-18T13:42:00;10.60;99.90
15156;DHT22;7678;50.058;8.306;2022-11-18T13:44:30;10.40;99.90
15156;DHT22;7678;50.058;8.306;2022-11-18T13:47:05;10.40;99.90
15156;DHT22;7678;50.058;8.306;2022-11-18T13:49:45;10.30;99.90
15156;DHT22;7678;50.058;8.306;2022-11-18T13:52:19;10.20;99.90
15156;DHT22;7678;50.058;8.306;2022-11-18T13:54:51;10.20;99.90
15156;DHT22;7678;50.058;8.306;2022-11-18T13:57:23;10.10;99.90
15156;DHT22;7678;50.058;8.306;2022-11-18T13:59:52;10.20;99.90
15156;DHT22;7678;50.058;8.306;2022-11-18T14:02:21;10.20;99.90
15156;DHT22;7678;50.058;8.306;2022-11-18T14:04:53;10.20;99.90
15156;DHT22;7678;50.058;8.306;2022-11-18T14:07:26;10.20;99.90
15156;DHT22;7678;50.058;8.306;2022-11-18T14:09:56;10.10;99.90
15156;DHT22;7678;50.058;8.306;2022-11-18T14:12:27;10.10;99.90
15156;DHT22;7678;50.058;8.306;2022-11-18T14:15:19;10.10;99.90
15156;DHT22;7678;50.058;8.306;2022-11-18T14:17:55;10.10;99.90
15156;DHT22;7678;50.058;8.306;2022-11-18T14:20:27;10.10;99.90
15156;DHT22;7678;50.058;8.306;2022-11-18T14:22:57;10.00;99.90
15156;DHT22;7678;50.058;8.306;2022-11-18T14:25:28;10.00;99.90
15156;DHT22;7678;50.058;8.306;2022-11-18T14:28:08;10.10;99.90
15156;DHT22;7678;50.058;8.306;2022-11-18T14:30:40;10.00;99.90
15156;DHT22;7678;50.058;8.306;2022-11-18T14:33:17;9.90;99.90
15156;DHT22;7678;50.058;8.306;2022-11-18T14:35:53;10.00;99.90
15156;DHT22;7678;50.058;8.306;2022-11-18T14:38:27;10.00;99.90
15156;DHT22;7678;50.058;8.306;2022-11-18T14:41:11;9.90;99.90
15156;DHT22;7678;50.058;8.306;2022-11-18T14:43:41;9.90;99.90
15156;DHT22;7678;50.058;8.306;2022-11-18T14:46:15;9.90;99.90
15156;DHT22;7678;50.058;8.306;2022-11-18T14:48:44;9.80;99.90
15156;DHT22;7678;50.058;8.306;2022-11-18T14:51:15;9.80;99.90
15156;DHT22;7678;50.058;8.306;2022-11-18T14:53:46;9.70;99.90
15156;DHT22;7678;50.058;8.306;2022-11-18T14:56:19;9.50;99.90
15156;DHT22;7678;50.058;8.306;2022-11-18T14:58:49;9.50;99.90
15156;DHT22;7678;50.058;8.306;2022-11-18T15:01:17;9.50;99.90
15156;DHT22;7678;50.058;8.306;2022-11-18T15:03:45;9.50;99.90
15156;DHT22;7678;50.058;8.306;2022-11-18T15:06:16;9.40;99.90
15156;DHT22;7678;50.058;8.306;2022-11-18T15:08:46;9.30;99.90
15156;DHT22;7678;50.058;8.306;2022-11-18T15:11:14;9.20;99.90
15156;DHT22;7678;50.058;8.306;2022-11-18T15:13:44;9.20;99.90
15156;DHT22;7678;50.058;8.306;2022-11-18T15:16:14;9.20;99.90
15156;DHT22;7678;50.058;8.306;2022-11-18T15:18:44;9.10;99.90
15156;DHT22;7678;50.058;8.306;2022-11-18T15:21:13;9.20;99.90
15156;DHT22;7678;50.058;8.306;2022-11-18T15:23:42;9.10;99.90
15156;DHT22;7678;50.058;8.306;2022-11-18T15:26:17;9.10;99.90
15156;DHT22;7678;50.058;8.306;2022-11-18T15:28:46;9.10;99.90
15156;DHT22;7678;50.058;8.306;2022-11-18T15:31:15;9.20;99.90
15156;DHT22;7678;50.058;8.306;2022-11-18T15:33:45;9.00;99.90
15156;DHT22;7678;50.058;8.306;2022-11-18T15:36:16;9.00;99.90
15156;DHT22;7678;50.058;8.306;2022-11-18T15:38:46;8.90;99.90
15156;DHT22;7678;50.058;8.306;2022-11-18T15:41:16;8.80;99.90
15156;DHT22;7678;50.058;8.306;2022-11-18T15:43:46;8.80;99.90
15156;DHT22;7678;50.058;8.306;2022-11-18T15:46:16;8.80;99.90
15156;DHT22;7678;50.058;8.306;2022-11-18T15:48:45;8.70;99.90
15156;DHT22;7678;50.058;8.306;2022-11-18T15:51:14;8.70;99.90
15156;DHT22;7678;50.058;8.306;2022-11-18T15:53:42;8.70;99.90
15156;DHT22;7678;50.058;8.306;2022-11-18T15:56:25;8.70;99.90
15156;DHT22;7678;50.058;8.306;2022-11-18T15:58:54;8.60;99.90
15156;DHT22;7678;50.058;8.306;2022-11-18T16:01:23;8.60;99.90
15156;DHT22;7678;50.058;8.306;2022-11-18T16:03:52;8.60;99.90
15156;DHT22;7678;50.058;8.306;2022-11-18T16:06:20;8.60;99.90
15156;DHT22;7678;50.058;8.306;2022-11-18T16:08:49;8.60;99.90
15156;DHT22;7678;50.058;8.306;2022-11-18T16:11:26;8.60;99.90
15156;DHT22;7678;50.058;8.306;2022-11-18T16:14:14;8.60;99.90
15156;DHT22;7678;50.058;8.306;2022-11-18T16:16:48;8.60;99.90
15156;DHT22;7678;50.058;8.306;2022-11-18T16:19:18;8.60;99.90
15156;DHT22;7678;50.058;8.306;2022-11-18T16:21:48;8.60;99.90
15156;DHT22;7678;50.058;8.306;2022-11-18T16:24:19;8.70;99.90
15156;DHT22;7678;50.058;8.306;2022-11-18T16:26:49;8.60;99.90
15156;DHT22;7678;50.058;8.306;2022-11-18T16:29:17;8.60;99.90
15156;DHT22;7678;50.058;8.306;2022-11-18T16:31:48;8.60;99.90
15156;DHT22;7678;50.058;8.306;2022-11-18T16:34:22;8.60;99.90
15156;DHT22;7678;50.058;8.306;2022-11-18T16:36:54;8.60;99.90
15156;DHT22;7678;50.058;8.306;2022-11-18T16:39:24;8.50;99.90
15156;DHT22;7678;50.058;8.306;2022-11-18T16:41:55;8.60;99.90
15156;DHT22;7678;50.058;8.306;2022-11-18T16:44:32;8.60;99.90
15156;DHT22;7678;50.058;8.306;2022-11-18T16:47:00;8.60;99.90